Hantsport, Canada
Current Conditions -  °F | °C
As of 8:34 PM on Saturday 20 Dec 2014 (Local Time) from CYHZ Reporting Station
Overcast Overcast  
Wind Chill: 22°   Ceiling: 2200
Heat Index: 30°   Visibility: 15mi
Dew Point: 27°   Wind: 9mph
Humidity: 86%   Direction: 10°N
Pressure: 30.28"   Gusts: NA
Location:  45.07°N, 64.18°W
Report Text: CYHZ 210034Z 01008KT 15SM OVC022 M01/M03 A3028 RMK SC8 SLP260
Loading
Personal Weather Stations






























Interactive Weather Map New forecast layout! Learn more

10-Day Weather Forecast

Advertisements
Track Severe Weather on mobile